sensor_id;sensor_type;location;lat;lon;timestamp;P1;durP1;ratioP1;P2;durP2;ratioP2
5710;SDS011;61291;52.524;13.422;2022-08-19T00:02:21;65.57;;;60.57;;
5710;SDS011;61291;52.524;13.422;2022-08-19T00:04:47;66.30;;;61.03;;
5710;SDS011;61291;52.524;13.422;2022-08-19T00:07:17;61.30;;;56.50;;
5710;SDS011;61291;52.524;13.422;2022-08-19T00:09:46;64.80;;;59.80;;
5710;SDS011;61291;52.524;13.422;2022-08-19T00:12:11;65.40;;;60.17;;
5710;SDS011;61291;52.524;13.422;2022-08-19T00:14:37;65.17;;;60.00;;
5710;SDS011;61291;52.524;13.422;2022-08-19T00:17:04;68.10;;;62.40;;
5710;SDS011;61291;52.524;13.422;2022-08-19T00:19:31;65.53;;;60.43;;
5710;SDS011;61291;52.524;13.422;2022-08-19T00:21:58;65.03;;;59.80;;
5710;SDS011;61291;52.524;13.422;2022-08-19T00:24:24;65.80;;;60.40;;
5710;SDS011;61291;52.524;13.422;2022-08-19T00:26:50;67.60;;;61.93;;
5710;SDS011;61291;52.524;13.422;2022-08-19T00:29:17;66.63;;;61.13;;
5710;SDS011;61291;52.524;13.422;2022-08-19T00:31:43;68.50;;;62.53;;
5710;SDS011;61291;52.524;13.422;2022-08-19T00:34:10;71.07;;;65.37;;
5710;SDS011;61291;52.524;13.422;2022-08-19T00:36:36;71.13;;;65.53;;
5710;SDS011;61291;52.524;13.422;2022-08-19T00:39:02;73.23;;;67.20;;
5710;SDS011;61291;52.524;13.422;2022-08-19T00:41:28;71.20;;;65.40;;
5710;SDS011;61291;52.524;13.422;2022-08-19T00:43:58;73.00;;;66.80;;
5710;SDS011;61291;52.524;13.422;2022-08-19T00:46:35;72.27;;;66.07;;
5710;SDS011;61291;52.524;13.422;2022-08-19T00:49:05;68.60;;;62.90;;
5710;SDS011;61291;52.524;13.422;2022-08-19T00:51:39;71.63;;;66.03;;
5710;SDS011;61291;52.524;13.422;2022-08-19T00:54:05;71.03;;;65.23;;
5710;SDS011;61291;52.524;13.422;2022-08-19T00:56:31;72.17;;;66.43;;
5710;SDS011;61291;52.524;13.422;2022-08-19T00:58:59;72.67;;;66.20;;
5710;SDS011;61291;52.524;13.422;2022-08-19T01:01:26;74.80;;;68.63;;
5710;SDS011;61291;52.524;13.422;2022-08-19T01:03:52;72.87;;;66.60;;
5710;SDS011;61291;52.524;13.422;2022-08-19T01:06:17;73.80;;;67.43;;
5710;SDS011;61291;52.524;13.422;2022-08-19T01:08:43;73.83;;;68.00;;
5710;SDS011;61291;52.524;13.422;2022-08-19T01:11:08;71.90;;;65.90;;
5710;SDS011;61291;52.524;13.422;2022-08-19T01:13:34;76.67;;;70.17;;
5710;SDS011;61291;52.524;13.422;2022-08-19T01:16:01;74.50;;;68.30;;
5710;SDS011;61291;52.524;13.422;2022-08-19T01:18:30;78.50;;;71.60;;
5710;SDS011;61291;52.524;13.422;2022-08-19T01:20:58;73.90;;;67.50;;
5710;SDS011;61291;52.524;13.422;2022-08-19T01:23:27;77.13;;;70.33;;
5710;SDS011;61291;52.524;13.422;2022-08-19T01:26:08;80.93;;;73.53;;
5710;SDS011;61291;52.524;13.422;2022-08-19T01:28:39;73.87;;;67.50;;
5710;SDS011;61291;52.524;13.422;2022-08-19T01:31:06;74.53;;;68.13;;
5710;SDS011;61291;52.524;13.422;2022-08-19T01:33:34;80.77;;;73.00;;
5710;SDS011;61291;52.524;13.422;2022-08-19T01:36:04;71.03;;;65.03;;
5710;SDS011;61291;52.524;13.422;2022-08-19T01:38:36;80.00;;;72.60;;
5710;SDS011;61291;52.524;13.422;2022-08-19T01:41:02;77.00;;;70.20;;
5710;SDS011;61291;52.524;13.422;2022-08-19T01:43:28;74.97;;;68.57;;
5710;SDS011;61291;52.524;13.422;2022-08-19T01:45:54;75.87;;;69.47;;
5710;SDS011;61291;52.524;13.422;2022-08-19T01:48:19;75.33;;;69.03;;
5710;SDS011;61291;52.524;13.422;2022-08-19T01:50:44;75.30;;;68.93;;
5710;SDS011;61291;52.524;13.422;2022-08-19T01:53:10;73.20;;;67.23;;
5710;SDS011;61291;52.524;13.422;2022-08-19T01:55:37;74.33;;;67.73;;
5710;SDS011;61291;52.524;13.422;2022-08-19T01:58:05;71.73;;;65.67;;
5710;SDS011;61291;52.524;13.422;2022-08-19T02:00:32;72.37;;;65.33;;
5710;SDS011;61291;52.524;13.422;2022-08-19T02:02:57;74.93;;;68.37;;
5710;SDS011;61291;52.524;13.422;2022-08-19T02:05:23;79.17;;;72.07;;
5710;SDS011;61291;52.524;13.422;2022-08-19T02:07:49;76.17;;;69.77;;
5710;SDS011;61291;52.524;13.422;2022-08-19T02:10:17;74.93;;;67.97;;
5710;SDS011;61291;52.524;13.422;2022-08-19T02:12:44;77.80;;;70.90;;
5710;SDS011;61291;52.524;13.422;2022-08-19T02:15:11;79.07;;;71.80;;
5710;SDS011;61291;52.524;13.422;2022-08-19T02:17:37;73.80;;;67.37;;
5710;SDS011;61291;52.524;13.422;2022-08-19T02:20:04;76.03;;;69.37;;
5710;SDS011;61291;52.524;13.422;2022-08-19T02:22:31;75.43;;;67.97;;
5710;SDS011;61291;52.524;13.422;2022-08-19T02:24:57;78.53;;;71.93;;
5710;SDS011;61291;52.524;13.422;2022-08-19T02:27:23;74.80;;;68.33;;
5710;SDS011;61291;52.524;13.422;2022-08-19T02:29:49;69.07;;;63.30;;
5710;SDS011;61291;52.524;13.422;2022-08-19T02:32:16;77.23;;;70.63;;
5710;SDS011;61291;52.524;13.422;2022-08-19T02:34:43;77.23;;;70.90;;
5710;SDS011;61291;52.524;13.422;2022-08-19T02:37:08;76.53;;;69.97;;
5710;SDS011;61291;52.524;13.422;2022-08-19T02:39:53;74.40;;;68.13;;
5710;SDS011;61291;52.524;13.422;2022-08-19T02:42:19;78.50;;;72.00;;
5710;SDS011;61291;52.524;13.422;2022-08-19T02:44:44;72.77;;;66.67;;
5710;SDS011;61291;52.524;13.422;2022-08-19T02:47:10;72.43;;;65.80;;
5710;SDS011;61291;52.524;13.422;2022-08-19T02:49:35;74.10;;;66.93;;
5710;SDS011;61291;52.524;13.422;2022-08-19T02:52:01;72.73;;;66.03;;
5710;SDS011;61291;52.524;13.422;2022-08-19T02:54:27;74.30;;;68.03;;
5710;SDS011;61291;52.524;13.422;2022-08-19T02:56:53;74.00;;;67.67;;
5710;SDS011;61291;52.524;13.422;2022-08-19T02:59:18;70.40;;;64.20;;
5710;SDS011;61291;52.524;13.422;2022-08-19T03:01:44;69.60;;;63.53;;
5710;SDS011;61291;52.524;13.422;2022-08-19T03:04:14;72.53;;;66.60;;
5710;SDS011;61291;52.524;13.422;2022-08-19T03:06:42;67.67;;;62.07;;
5710;SDS011;61291;52.524;13.422;2022-08-19T03:09:10;75.57;;;68.97;;
5710;SDS011;61291;52.524;13.422;2022-08-19T03:11:36;70.13;;;64.33;;
5710;SDS011;61291;52.524;13.422;2022-08-19T03:14:02;71.73;;;65.53;;
5710;SDS011;61291;52.524;13.422;2022-08-19T03:16:31;68.90;;;63.37;;
5710;SDS011;61291;52.524;13.422;2022-08-19T03:19:00;70.07;;;64.07;;
5710;SDS011;61291;52.524;13.422;2022-08-19T03:21:28;71.63;;;65.30;;
5710;SDS011;61291;52.524;13.422;2022-08-19T03:23:56;68.87;;;62.77;;
5710;SDS011;61291;52.524;13.422;2022-08-19T03:26:22;66.90;;;60.97;;
5710;SDS011;61291;52.524;13.422;2022-08-19T03:28:48;63.60;;;58.33;;
5710;SDS011;61291;52.524;13.422;2022-08-19T03:31:15;70.63;;;64.73;;
5710;SDS011;61291;52.524;13.422;2022-08-19T03:33:44;67.07;;;61.17;;
5710;SDS011;61291;52.524;13.422;2022-08-19T03:36:12;74.90;;;68.00;;
5710;SDS011;61291;52.524;13.422;2022-08-19T03:38:45;69.37;;;63.97;;
5710;SDS011;61291;52.524;13.422;2022-08-19T03:41:15;72.10;;;65.50;;
5710;SDS011;61291;52.524;13.422;2022-08-19T03:43:43;75.53;;;69.13;;
5710;SDS011;61291;52.524;13.422;2022-08-19T03:46:15;76.83;;;69.80;;
5710;SDS011;61291;52.524;13.422;2022-08-19T03:48:42;67.30;;;61.60;;
5710;SDS011;61291;52.524;13.422;2022-08-19T03:51:15;73.10;;;67.20;;
5710;SDS011;61291;52.524;13.422;2022-08-19T03:53:42;68.27;;;62.87;;
5710;SDS011;61291;52.524;13.422;2022-08-19T03:56:08;68.27;;;62.73;;
5710;SDS011;61291;52.524;13.422;2022-08-19T03:58:34;63.40;;;58.40;;
5710;SDS011;61291;52.524;13.422;2022-08-19T04:01:02;57.03;;;52.87;;
5710;SDS011;61291;52.524;13.422;2022-08-19T04:03:31;70.80;;;65.20;;
5710;SDS011;61291;52.524;13.422;2022-08-19T04:05:56;76.50;;;70.50;;
5710;SDS011;61291;52.524;13.422;2022-08-19T04:08:22;71.43;;;65.43;;
5710;SDS011;61291;52.524;13.422;2022-08-19T04:10:48;62.07;;;57.20;;
5710;SDS011;61291;52.524;13.422;2022-08-19T04:13:15;61.60;;;56.73;;
5710;SDS011;61291;52.524;13.422;2022-08-19T04:15:42;73.97;;;68.40;;
5710;SDS011;61291;52.524;13.422;2022-08-19T04:18:09;71.10;;;65.40;;
5710;SDS011;61291;52.524;13.422;2022-08-19T04:20:45;69.27;;;63.47;;
5710;SDS011;61291;52.524;13.422;2022-08-19T04:23:13;71.40;;;65.30;;
5710;SDS011;61291;52.524;13.422;2022-08-19T04:25:40;62.80;;;57.97;;
5710;SDS011;61291;52.524;13.422;2022-08-19T04:28:08;68.60;;;63.40;;
5710;SDS011;61291;52.524;13.422;2022-08-19T04:30:45;72.97;;;66.87;;
5710;SDS011;61291;52.524;13.422;2022-08-19T04:33:12;70.80;;;64.80;;
5710;SDS011;61291;52.524;13.422;2022-08-19T04:35:40;71.17;;;65.63;;
5710;SDS011;61291;52.524;13.422;2022-08-19T04:38:08;75.37;;;69.87;;
5710;SDS011;61291;52.524;13.422;2022-08-19T04:40:34;71.37;;;66.10;;
5710;SDS011;61291;52.524;13.422;2022-08-19T04:43:23;67.80;;;62.50;;
5710;SDS011;61291;52.524;13.422;2022-08-19T04:45:49;75.97;;;69.93;;
5710;SDS011;61291;52.524;13.422;2022-08-19T04:48:16;75.27;;;69.67;;
5710;SDS011;61291;52.524;13.422;2022-08-19T04:50:43;78.87;;;72.50;;
5710;SDS011;61291;52.524;13.422;2022-08-19T04:53:09;76.33;;;70.13;;
5710;SDS011;61291;52.524;13.422;2022-08-19T04:55:37;79.83;;;74.00;;
5710;SDS011;61291;52.524;13.422;2022-08-19T04:58:05;72.97;;;67.37;;
5710;SDS011;61291;52.524;13.422;2022-08-19T05:00:30;67.33;;;62.47;;
5710;SDS011;61291;52.524;13.422;2022-08-19T05:02:56;74.90;;;69.20;;
5710;SDS011;61291;52.524;13.422;2022-08-19T05:05:21;68.73;;;63.23;;
5710;SDS011;61291;52.524;13.422;2022-08-19T05:07:47;76.53;;;70.53;;
5710;SDS011;61291;52.524;13.422;2022-08-19T05:10:12;76.70;;;70.90;;
5710;SDS011;61291;52.524;13.422;2022-08-19T05:12:38;78.23;;;72.23;;
5710;SDS011;61291;52.524;13.422;2022-08-19T05:15:04;74.17;;;68.30;;
5710;SDS011;61291;52.524;13.422;2022-08-19T05:17:33;81.70;;;75.60;;
5710;SDS011;61291;52.524;13.422;2022-08-19T05:19:58;79.50;;;73.20;;
5710;SDS011;61291;52.524;13.422;2022-08-19T05:22:42;78.77;;;72.47;;
5710;SDS011;61291;52.524;13.422;2022-08-19T05:25:11;74.53;;;68.60;;
5710;SDS011;61291;52.524;13.422;2022-08-19T05:27:39;76.23;;;70.07;;
5710;SDS011;61291;52.524;13.422;2022-08-19T05:30:06;77.20;;;71.50;;
5710;SDS011;61291;52.524;13.422;2022-08-19T05:32:32;83.70;;;77.47;;
5710;SDS011;61291;52.524;13.422;2022-08-19T05:34:57;74.00;;;68.20;;
5710;SDS011;61291;52.524;13.422;2022-08-19T05:37:23;78.53;;;72.40;;
5710;SDS011;61291;52.524;13.422;2022-08-19T05:39:51;78.67;;;72.37;;
5710;SDS011;61291;52.524;13.422;2022-08-19T05:42:17;78.53;;;72.37;;
5710;SDS011;61291;52.524;13.422;2022-08-19T05:44:44;72.67;;;67.07;;
5710;SDS011;61291;52.524;13.422;2022-08-19T05:47:11;77.20;;;71.10;;
5710;SDS011;61291;52.524;13.422;2022-08-19T05:49:38;75.43;;;69.30;;
5710;SDS011;61291;52.524;13.422;2022-08-19T05:52:04;79.30;;;73.00;;
5710;SDS011;61291;52.524;13.422;2022-08-19T05:54:32;76.13;;;70.33;;
5710;SDS011;61291;52.524;13.422;2022-08-19T05:56:59;75.83;;;69.90;;
5710;SDS011;61291;52.524;13.422;2022-08-19T05:59:25;68.95;;;63.17;;
5710;SDS011;61291;52.524;13.422;2022-08-19T06:01:51;81.93;;;75.43;;
5710;SDS011;61291;52.524;13.422;2022-08-19T06:04:20;77.27;;;70.80;;
5710;SDS011;61291;52.524;13.422;2022-08-19T06:06:47;70.93;;;65.50;;
5710;SDS011;61291;52.524;13.422;2022-08-19T06:09:15;76.60;;;70.70;;
5710;SDS011;61291;52.524;13.422;2022-08-19T06:11:45;86.97;;;80.10;;
5710;SDS011;61291;52.524;13.422;2022-08-19T06:14:14;81.57;;;74.77;;
5710;SDS011;61291;52.524;13.422;2022-08-19T06:16:43;77.07;;;71.03;;
5710;SDS011;61291;52.524;13.422;2022-08-19T06:19:13;78.17;;;71.93;;
5710;SDS011;61291;52.524;13.422;2022-08-19T06:21:41;78.95;;;72.75;;
5710;SDS011;61291;52.524;13.422;2022-08-19T06:24:09;78.80;;;71.47;;
5710;SDS011;61291;52.524;13.422;2022-08-19T06:26:37;78.47;;;72.37;;
5710;SDS011;61291;52.524;13.422;2022-08-19T06:29:04;79.87;;;73.63;;
5710;SDS011;61291;52.524;13.422;2022-08-19T06:31:31;75.33;;;69.60;;
5710;SDS011;61291;52.524;13.422;2022-08-19T06:33:58;81.63;;;75.53;;
5710;SDS011;61291;52.524;13.422;2022-08-19T06:36:26;83.87;;;77.27;;
5710;SDS011;61291;52.524;13.422;2022-08-19T06:38:56;80.27;;;73.87;;
5710;SDS011;61291;52.524;13.422;2022-08-19T06:41:22;82.67;;;75.27;;
5710;SDS011;61291;52.524;13.422;2022-08-19T06:43:52;74.27;;;68.57;;
5710;SDS011;61291;52.524;13.422;2022-08-19T06:46:18;77.33;;;70.93;;
5710;SDS011;61291;52.524;13.422;2022-08-19T06:48:45;74.83;;;68.30;;
5710;SDS011;61291;52.524;13.422;2022-08-19T06:51:12;75.73;;;69.73;;
5710;SDS011;61291;52.524;13.422;2022-08-19T06:53:48;76.20;;;70.40;;
5710;SDS011;61291;52.524;13.422;2022-08-19T06:56:17;75.13;;;68.93;;
5710;SDS011;61291;52.524;13.422;2022-08-19T06:58:45;74.53;;;68.57;;
5710;SDS011;61291;52.524;13.422;2022-08-19T07:01:11;77.03;;;70.93;;
5710;SDS011;61291;52.524;13.422;2022-08-19T07:03:37;72.47;;;66.90;;
5710;SDS011;61291;52.524;13.422;2022-08-19T07:06:04;72.97;;;67.27;;
5710;SDS011;61291;52.524;13.422;2022-08-19T07:08:32;69.53;;;64.03;;
5710;SDS011;61291;52.524;13.422;2022-08-19T07:10:59;74.50;;;68.53;;
5710;SDS011;61291;52.524;13.422;2022-08-19T07:13:25;73.57;;;67.77;;
5710;SDS011;61291;52.524;13.422;2022-08-19T07:15:51;68.53;;;62.53;;
5710;SDS011;61291;52.524;13.422;2022-08-19T07:18:17;75.87;;;69.37;;
5710;SDS011;61291;52.524;13.422;2022-08-19T07:20:45;75.40;;;67.90;;
5710;SDS011;61291;52.524;13.422;2022-08-19T07:23:10;76.63;;;69.70;;
5710;SDS011;61291;52.524;13.422;2022-08-19T07:25:37;74.87;;;68.93;;
5710;SDS011;61291;52.524;13.422;2022-08-19T07:28:03;73.33;;;67.40;;
5710;SDS011;61291;52.524;13.422;2022-08-19T07:30:29;74.97;;;68.87;;
5710;SDS011;61291;52.524;13.422;2022-08-19T07:32:55;78.70;;;72.07;;
5710;SDS011;61291;52.524;13.422;2022-08-19T07:35:21;77.00;;;70.50;;
5710;SDS011;61291;52.524;13.422;2022-08-19T07:37:48;77.80;;;71.50;;
5710;SDS011;61291;52.524;13.422;2022-08-19T07:40:14;76.50;;;70.40;;
5710;SDS011;61291;52.524;13.422;2022-08-19T07:42:39;68.93;;;63.13;;
5710;SDS011;61291;52.524;13.422;2022-08-19T07:45:05;74.83;;;68.43;;
5710;SDS011;61291;52.524;13.422;2022-08-19T07:47:32;76.00;;;70.00;;
5710;SDS011;61291;52.524;13.422;2022-08-19T07:49:57;78.53;;;72.70;;
5710;SDS011;61291;52.524;13.422;2022-08-19T07:52:23;71.87;;;65.83;;
5710;SDS011;61291;52.524;13.422;2022-08-19T07:54:48;73.00;;;66.23;;
5710;SDS011;61291;52.524;13.422;2022-08-19T07:57:14;72.60;;;66.07;;
5710;SDS011;61291;52.524;13.422;2022-08-19T07:59:40;72.70;;;66.90;;
5710;SDS011;61291;52.524;13.422;2022-08-19T08:02:06;74.37;;;68.00;;
5710;SDS011;61291;52.524;13.422;2022-08-19T08:04:33;76.57;;;70.40;;
5710;SDS011;61291;52.524;13.422;2022-08-19T08:07:17;77.70;;;70.90;;
5710;SDS011;61291;52.524;13.422;2022-08-19T08:10:03;74.10;;;68.10;;
5710;SDS011;61291;52.524;13.422;2022-08-19T08:12:33;76.13;;;69.57;;
5710;SDS011;61291;52.524;13.422;2022-08-19T08:15:01;78.70;;;72.67;;
5710;SDS011;61291;52.524;13.422;2022-08-19T08:17:30;76.03;;;69.73;;
5710;SDS011;61291;52.524;13.422;2022-08-19T08:19:56;77.60;;;70.90;;
5710;SDS011;61291;52.524;13.422;2022-08-19T08:22:22;74.80;;;68.70;;
5710;SDS011;61291;52.524;13.422;2022-08-19T08:25:11;79.63;;;73.03;;
5710;SDS011;61291;52.524;13.422;2022-08-19T08:27:40;76.07;;;70.23;;
5710;SDS011;61291;52.524;13.422;2022-08-19T08:30:10;78.63;;;72.60;;
5710;SDS011;61291;52.524;13.422;2022-08-19T08:32:41;82.50;;;75.70;;
5710;SDS011;61291;52.524;13.422;2022-08-19T08:35:07;76.07;;;69.53;;
5710;SDS011;61291;52.524;13.422;2022-08-19T08:37:35;82.53;;;75.73;;
5710;SDS011;61291;52.524;13.422;2022-08-19T08:40:10;81.13;;;74.57;;
5710;SDS011;61291;52.524;13.422;2022-08-19T08:42:51;81.57;;;75.07;;
5710;SDS011;61291;52.524;13.422;2022-08-19T08:45:25;79.67;;;73.23;;
5710;SDS011;61291;52.524;13.422;2022-08-19T08:47:52;81.00;;;74.60;;
5710;SDS011;61291;52.524;13.422;2022-08-19T08:50:32;78.17;;;70.87;;
5710;SDS011;61291;52.524;13.422;2022-08-19T08:53:01;79.60;;;72.80;;
5710;SDS011;61291;52.524;13.422;2022-08-19T08:55:30;81.90;;;75.30;;
5710;SDS011;61291;52.524;13.422;2022-08-19T08:58:06;81.33;;;74.67;;
5710;SDS011;61291;52.524;13.422;2022-08-19T09:00:43;85.17;;;78.07;;
5710;SDS011;61291;52.524;13.422;2022-08-19T09:03:20;81.60;;;74.83;;
5710;SDS011;61291;52.524;13.422;2022-08-19T09:05:51;78.63;;;72.10;;
5710;SDS011;61291;52.524;13.422;2022-08-19T09:14:55;75.37;;;69.00;;
5710;SDS011;61291;52.524;13.422;2022-08-19T09:16:54;80.53;;;73.93;;
5710;SDS011;61291;52.524;13.422;2022-08-19T09:19:21;85.53;;;79.10;;
5710;SDS011;61291;52.524;13.422;2022-08-19T09:21:46;74.53;;;68.20;;
5710;SDS011;61291;52.524;13.422;2022-08-19T09:24:12;77.03;;;71.10;;
5710;SDS011;61291;52.524;13.422;2022-08-19T09:26:38;79.73;;;73.00;;
5710;SDS011;61291;52.524;13.422;2022-08-19T09:29:03;79.60;;;71.60;;
5710;SDS011;61291;52.524;13.422;2022-08-19T09:31:31;79.30;;;72.40;;
5710;SDS011;61291;52.524;13.422;2022-08-19T09:33:57;78.13;;;71.47;;
5710;SDS011;61291;52.524;13.422;2022-08-19T09:36:25;75.13;;;68.07;;
5710;SDS011;61291;52.524;13.422;2022-08-19T09:38:54;71.20;;;65.30;;
5710;SDS011;61291;52.524;13.422;2022-08-19T09:41:21;82.37;;;75.13;;
5710;SDS011;61291;52.524;13.422;2022-08-19T09:43:49;72.97;;;66.47;;
5710;SDS011;61291;52.524;13.422;2022-08-19T09:46:21;77.77;;;70.97;;
5710;SDS011;61291;52.524;13.422;2022-08-19T09:48:48;75.17;;;69.00;;
5710;SDS011;61291;52.524;13.422;2022-08-19T09:51:17;75.40;;;69.20;;
5710;SDS011;61291;52.524;13.422;2022-08-19T09:53:45;70.70;;;64.77;;
5710;SDS011;61291;52.524;13.422;2022-08-19T09:56:12;71.07;;;65.07;;
5710;SDS011;61291;52.524;13.422;2022-08-19T09:58:38;73.20;;;66.57;;
5710;SDS011;61291;52.524;13.422;2022-08-19T10:01:04;74.50;;;68.07;;
5710;SDS011;61291;52.524;13.422;2022-08-19T10:03:32;75.67;;;69.30;;
5710;SDS011;61291;52.524;13.422;2022-08-19T10:05:59;77.83;;;71.20;;
5710;SDS011;61291;52.524;13.422;2022-08-19T10:08:28;71.47;;;65.47;;
5710;SDS011;61291;52.524;13.422;2022-08-19T10:10:56;70.30;;;64.83;;
5710;SDS011;61291;52.524;13.422;2022-08-19T10:13:24;69.97;;;64.20;;
5710;SDS011;61291;52.524;13.422;2022-08-19T10:15:52;73.03;;;66.43;;
5710;SDS011;61291;52.524;13.422;2022-08-19T10:18:19;75.13;;;68.90;;
5710;SDS011;61291;52.524;13.422;2022-08-19T10:20:46;73.60;;;67.40;;
5710;SDS011;61291;52.524;13.422;2022-08-19T10:23:13;72.60;;;64.97;;
5710;SDS011;61291;52.524;13.422;2022-08-19T10:25:40;75.87;;;69.37;;
5710;SDS011;61291;52.524;13.422;2022-08-19T10:28:06;77.13;;;70.63;;
5710;SDS011;61291;52.524;13.422;2022-08-19T10:30:32;73.43;;;67.43;;
5710;SDS011;61291;52.524;13.422;2022-08-19T10:32:58;73.30;;;67.40;;
5710;SDS011;61291;52.524;13.422;2022-08-19T10:35:24;75.30;;;69.10;;
5710;SDS011;61291;52.524;13.422;2022-08-19T10:37:54;77.73;;;71.03;;
5710;SDS011;61291;52.524;13.422;2022-08-19T10:40:24;78.90;;;72.60;;
5710;SDS011;61291;52.524;13.422;2022-08-19T10:42:51;74.03;;;68.10;;
5710;SDS011;61291;52.524;13.422;2022-08-19T10:45:17;73.30;;;67.37;;
5710;SDS011;61291;52.524;13.422;2022-08-19T10:47:42;75.87;;;69.77;;
5710;SDS011;61291;52.524;13.422;2022-08-19T10:50:08;74.37;;;68.27;;
5710;SDS011;61291;52.524;13.422;2022-08-19T10:52:52;79.13;;;72.83;;
5710;SDS011;61291;52.524;13.422;2022-08-19T10:55:19;70.93;;;65.33;;
5710;SDS011;61291;52.524;13.422;2022-08-19T10:58:09;74.27;;;68.40;;
5710;SDS011;61291;52.524;13.422;2022-08-19T11:00:39;74.57;;;68.40;;
5710;SDS011;61291;52.524;13.422;2022-08-19T11:03:05;74.27;;;67.83;;
5710;SDS011;61291;52.524;13.422;2022-08-19T11:05:31;75.53;;;68.43;;
5710;SDS011;61291;52.524;13.422;2022-08-19T11:07:56;70.93;;;65.20;;
5710;SDS011;61291;52.524;13.422;2022-08-19T11:10:22;71.53;;;65.30;;
5710;SDS011;61291;52.524;13.422;2022-08-19T11:12:48;76.23;;;69.80;;
5710;SDS011;61291;52.524;13.422;2022-08-19T11:15:19;78.27;;;72.00;;
5710;SDS011;61291;52.524;13.422;2022-08-19T11:17:45;73.57;;;66.97;;
5710;SDS011;61291;52.524;13.422;2022-08-19T11:20:11;74.67;;;68.07;;
5710;SDS011;61291;52.524;13.422;2022-08-19T11:22:37;70.87;;;64.70;;
5710;SDS011;61291;52.524;13.422;2022-08-19T11:25:04;72.27;;;66.53;;
5710;SDS011;61291;52.524;13.422;2022-08-19T11:27:31;74.40;;;67.60;;
5710;SDS011;61291;52.524;13.422;2022-08-19T11:29:56;66.20;;;61.00;;
5710;SDS011;61291;52.524;13.422;2022-08-19T11:32:21;76.53;;;69.07;;
5710;SDS011;61291;52.524;13.422;2022-08-19T11:34:47;78.37;;;72.17;;
5710;SDS011;61291;52.524;13.422;2022-08-19T11:37:13;80.27;;;73.90;;
5710;SDS011;61291;52.524;13.422;2022-08-19T11:39:38;80.93;;;74.43;;
5710;SDS011;61291;52.524;13.422;2022-08-19T11:42:04;72.70;;;66.43;;
5710;SDS011;61291;52.524;13.422;2022-08-19T11:44:51;70.20;;;64.70;;
5710;SDS011;61291;52.524;13.422;2022-08-19T11:47:17;71.90;;;66.20;;
5710;SDS011;61291;52.524;13.422;2022-08-19T11:49:43;74.20;;;68.27;;
5710;SDS011;61291;52.524;13.422;2022-08-19T11:52:08;71.80;;;66.20;;
5710;SDS011;61291;52.524;13.422;2022-08-19T11:54:34;69.30;;;64.10;;
5710;SDS011;61291;52.524;13.422;2022-08-19T11:56:59;76.50;;;70.00;;
5710;SDS011;61291;52.524;13.422;2022-08-19T11:59:27;74.43;;;68.83;;
5710;SDS011;61291;52.524;13.422;2022-08-19T12:01:54;78.50;;;72.40;;
5710;SDS011;61291;52.524;13.422;2022-08-19T12:04:20;74.07;;;67.72;;
5710;SDS011;61291;52.524;13.422;2022-08-19T12:06:46;69.13;;;63.50;;
5710;SDS011;61291;52.524;13.422;2022-08-19T12:09:11;71.07;;;65.40;;
5710;SDS011;61291;52.524;13.422;2022-08-19T12:11:42;68.57;;;62.93;;
5710;SDS011;61291;52.524;13.422;2022-08-19T12:14:13;72.47;;;66.87;;
5710;SDS011;61291;52.524;13.422;2022-08-19T12:16:39;73.67;;;67.63;;
5710;SDS011;61291;52.524;13.422;2022-08-19T12:19:06;78.90;;;73.00;;
5710;SDS011;61291;52.524;13.422;2022-08-19T12:21:34;73.47;;;67.10;;
5710;SDS011;61291;52.524;13.422;2022-08-19T12:24:01;73.90;;;68.10;;
5710;SDS011;61291;52.524;13.422;2022-08-19T12:26:29;69.20;;;63.57;;
5710;SDS011;61291;52.524;13.422;2022-08-19T12:28:56;70.80;;;65.00;;
5710;SDS011;61291;52.524;13.422;2022-08-19T12:31:24;70.50;;;65.10;;
5710;SDS011;61291;52.524;13.422;2022-08-19T12:33:50;66.97;;;61.90;;
5710;SDS011;61291;52.524;13.422;2022-08-19T12:36:17;74.23;;;68.30;;
5710;SDS011;61291;52.524;13.422;2022-08-19T12:38:43;74.87;;;68.90;;
5710;SDS011;61291;52.524;13.422;2022-08-19T12:41:09;72.88;;;66.88;;
5710;SDS011;61291;52.524;13.422;2022-08-19T12:43:37;72.17;;;66.30;;
5710;SDS011;61291;52.524;13.422;2022-08-19T12:46:03;67.27;;;61.73;;
5710;SDS011;61291;52.524;13.422;2022-08-19T12:48:29;65.33;;;60.00;;
5710;SDS011;61291;52.524;13.422;2022-08-19T12:50:55;70.10;;;64.60;;
5710;SDS011;61291;52.524;13.422;2022-08-19T12:53:21;66.83;;;61.53;;
5710;SDS011;61291;52.524;13.422;2022-08-19T12:55:47;68.37;;;62.50;;
5710;SDS011;61291;52.524;13.422;2022-08-19T12:58:13;69.73;;;64.30;;
5710;SDS011;61291;52.524;13.422;2022-08-19T13:00:38;64.20;;;58.90;;
5710;SDS011;61291;52.524;13.422;2022-08-19T13:03:04;65.17;;;59.57;;
5710;SDS011;61291;52.524;13.422;2022-08-19T13:05:30;68.50;;;62.90;;
5710;SDS011;61291;52.524;13.422;2022-08-19T13:07:58;71.33;;;65.50;;
5710;SDS011;61291;52.524;13.422;2022-08-19T13:10:26;64.93;;;59.73;;
5710;SDS011;61291;52.524;13.422;2022-08-19T13:12:55;67.20;;;61.73;;
5710;SDS011;61291;52.524;13.422;2022-08-19T13:15:22;65.50;;;60.40;;
5710;SDS011;61291;52.524;13.422;2022-08-19T13:17:48;65.83;;;60.07;;
5710;SDS011;61291;52.524;13.422;2022-08-19T13:20:16;61.77;;;56.70;;
5710;SDS011;61291;52.524;13.422;2022-08-19T13:22:43;69.10;;;62.97;;
5710;SDS011;61291;52.524;13.422;2022-08-19T13:25:10;65.90;;;60.67;;
5710;SDS011;61291;52.524;13.422;2022-08-19T13:27:36;69.93;;;64.27;;
5710;SDS011;61291;52.524;13.422;2022-08-19T13:30:03;66.47;;;61.13;;
5710;SDS011;61291;52.524;13.422;2022-08-19T13:32:47;64.47;;;58.60;;
5710;SDS011;61291;52.524;13.422;2022-08-19T13:35:32;68.50;;;62.70;;
5710;SDS011;61291;52.524;13.422;2022-08-19T13:37:57;67.37;;;62.10;;
5710;SDS011;61291;52.524;13.422;2022-08-19T13:40:23;64.10;;;59.00;;
5710;SDS011;61291;52.524;13.422;2022-08-19T13:42:52;68.43;;;63.03;;
5710;SDS011;61291;52.524;13.422;2022-08-19T13:45:19;65.70;;;60.83;;
5710;SDS011;61291;52.524;13.422;2022-08-19T13:47:47;63.73;;;58.37;;
5710;SDS011;61291;52.524;13.422;2022-08-19T13:50:15;65.03;;;59.83;;
5710;SDS011;61291;52.524;13.422;2022-08-19T13:52:43;66.63;;;61.70;;
5710;SDS011;61291;52.524;13.422;2022-08-19T13:55:09;66.63;;;61.40;;
5710;SDS011;61291;52.524;13.422;2022-08-19T13:57:36;70.40;;;65.10;;
5710;SDS011;61291;52.524;13.422;2022-08-19T14:00:09;67.93;;;62.33;;
5710;SDS011;61291;52.524;13.422;2022-08-19T14:02:37;72.17;;;66.63;;
5710;SDS011;61291;52.524;13.422;2022-08-19T14:05:04;69.63;;;64.23;;
5710;SDS011;61291;52.524;13.422;2022-08-19T14:07:31;68.80;;;63.47;;
5710;SDS011;61291;52.524;13.422;2022-08-19T14:09:57;71.60;;;66.23;;
5710;SDS011;61291;52.524;13.422;2022-08-19T14:12:22;67.00;;;62.00;;
5710;SDS011;61291;52.524;13.422;2022-08-19T14:14:48;64.77;;;59.70;;
5710;SDS011;61291;52.524;13.422;2022-08-19T14:17:13;69.43;;;63.67;;
5710;SDS011;61291;52.524;13.422;2022-08-19T14:19:39;76.67;;;71.10;;
5710;SDS011;61291;52.524;13.422;2022-08-19T14:22:05;61.40;;;56.27;;
5710;SDS011;61291;52.524;13.422;2022-08-19T14:24:31;68.97;;;63.37;;
5710;SDS011;61291;52.524;13.422;2022-08-19T14:26:57;66.43;;;61.00;;
5710;SDS011;61291;52.524;13.422;2022-08-19T14:29:24;60.83;;;55.92;;
5710;SDS011;61291;52.524;13.422;2022-08-19T14:31:50;68.03;;;62.23;;